createdAt,value
2018-02-04T00:00:21.403Z,7.12
2018-02-04T00:01:31.486Z,7.18
2018-02-04T00:02:41.594Z,7.22
2018-02-04T00:03:51.657Z,7.11
2018-02-04T00:05:01.708Z,7.18
2018-02-04T00:06:11.780Z,7.09
2018-02-04T00:07:21.820Z,7.08
2018-02-04T00:08:31.893Z,7.16
2018-02-04T00:09:41.940Z,7.15
2018-02-04T00:10:51.727Z,7.19
2018-02-04T00:12:01.787Z,7.16
2018-02-04T00:13:11.871Z,7.15
2018-02-04T00:14:21.913Z,7.05
2018-02-04T00:15:32.011Z,7.11
2018-02-04T00:16:42.072Z,7.21
2018-02-04T00:17:51.861Z,7.21
2018-02-04T00:19:01.671Z,7.15
2018-02-04T00:20:12.496Z,7.12
2018-02-04T00:21:22.283Z,7.15
2018-02-04T00:22:31.826Z,7.15
2018-02-04T00:23:41.610Z,7.08
2018-02-04T00:24:51.667Z,7
2018-02-04T00:26:01.705Z,7.09
2018-02-04T00:27:11.800Z,7.01
2018-02-04T00:28:21.850Z,6.98
2018-02-04T00:29:31.916Z,6.93
2018-02-04T00:30:41.696Z,7.03
2018-02-04T00:31:51.236Z,6.95
2018-02-04T00:33:01.090Z,6.97
2018-02-04T00:34:11.136Z,6.95
2018-02-04T00:35:20.949Z,7.03
2018-02-04T00:36:31.008Z,6.98
2018-02-04T00:37:40.564Z,6.98
2018-02-04T00:38:50.606Z,6.9
2018-02-04T00:40:00.642Z,6.97
2018-02-04T00:41:10.689Z,7.03
2018-02-04T00:42:20.748Z,6.93
2018-02-04T00:43:30.798Z,6.93
2018-02-04T00:44:40.836Z,6.85
2018-02-04T00:45:50.889Z,6.83
2018-02-04T00:47:00.952Z,6.93
2018-02-04T00:48:11.004Z,6.9
2018-02-04T00:49:21.059Z,6.85
2018-02-04T00:50:31.116Z,6.86
2018-02-04T00:51:41.178Z,6.8
2018-02-04T00:52:50.975Z,6.85
2018-02-04T00:54:01.018Z,6.83
2018-02-04T00:55:11.066Z,6.8
2018-02-04T00:56:21.106Z,6.78
2018-02-04T00:57:30.907Z,6.78
2018-02-04T00:58:40.969Z,6.83
2018-02-04T00:59:51.016Z,6.83
2018-02-04T01:01:00.810Z,6.95
2018-02-04T01:02:10.864Z,6.95
2018-02-04T01:03:20.661Z,6.8
2018-02-04T01:04:30.447Z,6.9
2018-02-04T01:05:40.510Z,6.78
2018-02-04T01:06:50.556Z,6.79
2018-02-04T01:08:00.698Z,6.83
2018-02-04T01:09:10.759Z,6.8
2018-02-04T01:10:20.810Z,6.8
2018-02-04T01:11:30.853Z,6.67
2018-02-04T01:12:40.894Z,6.78
2018-02-04T01:13:50.946Z,6.67
2018-02-04T01:15:00.974Z,6.73
2018-02-04T01:16:11.077Z,6.67
2018-02-04T01:17:20.871Z,6.72
2018-02-04T01:18:30.973Z,6.73
2018-02-04T01:19:41.019Z,6.68
2018-02-04T01:20:51.067Z,6.68
2018-02-04T01:22:00.844Z,6.67
2018-02-04T01:23:10.897Z,6.65
2018-02-04T01:24:20.942Z,6.7
2018-02-04T01:25:31.051Z,6.7
2018-02-04T01:26:40.835Z,6.65
2018-02-04T01:27:50.629Z,6.68
2018-02-04T01:29:00.697Z,6.62
2018-02-04T01:30:10.731Z,6.68
2018-02-04T01:31:20.513Z,6.68
2018-02-04T01:32:30.560Z,6.67
2018-02-04T01:33:40.617Z,6.65
2018-02-04T01:34:51.722Z,6.7
2018-02-04T01:36:01.772Z,6.7
2018-02-04T01:37:11.949Z,6.52
2018-02-04T01:38:21.984Z,6.68
2018-02-04T01:39:32.040Z,6.73
2018-02-04T01:40:41.883Z,6.67
2018-02-04T01:41:51.414Z,6.64
2018-02-04T01:43:01.235Z,6.58
2018-02-04T01:44:11.005Z,6.49
2018-02-04T01:45:21.061Z,6.58
2018-02-04T01:46:30.846Z,6.65
2018-02-04T01:47:40.901Z,6.57
2018-02-04T01:48:50.999Z,6.52
2018-02-04T01:50:01.056Z,6.61
2018-02-04T01:51:11.119Z,6.57
2018-02-04T01:52:20.894Z,6.44
2018-02-04T01:53:30.689Z,6.51
2018-02-04T01:54:40.460Z,6.47
2018-02-04T01:55:50.492Z,6.46
2018-02-04T01:57:00.533Z,6.43
2018-02-04T01:58:10.564Z,6.52
2018-02-04T01:59:20.356Z,6.44
2018-02-04T02:00:30.139Z,6.52
2018-02-04T02:01:40.200Z,6.39
2018-02-04T02:02:50.262Z,6.51
2018-02-04T02:04:00.337Z,6.46
2018-02-04T02:05:10.389Z,6.4
2018-02-04T02:06:20.167Z,6.46
2018-02-04T02:07:29.963Z,6.36
2018-02-04T02:08:39.768Z,6.36
2018-02-04T02:09:49.542Z,6.39
2018-02-04T02:10:59.328Z,6.36
2018-02-04T02:12:09.117Z,6.39
2018-02-04T02:13:19.197Z,6.36
2018-02-04T02:14:29.228Z,6.29
2018-02-04T02:15:39.431Z,6.36
2018-02-04T02:16:49.486Z,6.31
2018-02-04T02:17:59.579Z,6.29
2018-02-04T02:19:09.364Z,6.33
2018-02-04T02:20:19.153Z,6.31
2018-02-04T02:21:29.180Z,6.28
2018-02-04T02:22:39.216Z,6.26
2018-02-04T02:23:49.269Z,6.37
2018-02-04T02:24:59.309Z,6.31
2018-02-04T02:26:09.107Z,6.29
2018-02-04T02:27:19.148Z,6.18
2018-02-04T02:28:28.920Z,6.14
2018-02-04T02:29:38.696Z,6.07
2018-02-04T02:30:48.758Z,6.17
2018-02-04T02:31:58.545Z,6.2
2018-02-04T02:33:08.595Z,6.13
2018-02-04T02:34:18.673Z,6.17
2018-02-04T02:35:28.777Z,6.13
2018-02-04T02:36:38.570Z,6.07
2018-02-04T02:37:48.351Z,6.05
2018-02-04T02:38:58.124Z,6.03
2018-02-04T02:40:07.927Z,6.1
2018-02-04T02:41:18.000Z,6.09
2018-02-04T02:42:28.056Z,6.1
2018-02-04T02:43:38.097Z,6.14
2018-02-04T02:44:47.824Z,6.14
2018-02-04T02:45:57.878Z,6.15
2018-02-04T02:47:07.923Z,6.18
2018-02-04T02:48:17.976Z,6.18
2018-02-04T02:49:28.032Z,6.26
2018-02-04T02:50:38.082Z,6.17
2018-02-04T02:51:47.863Z,6.15
2018-02-04T02:52:57.632Z,6.18
2018-02-04T02:54:22.467Z,6.24
2018-02-04T02:55:32.523Z,6.26
2018-02-04T02:56:42.581Z,6.2
2018-02-04T02:57:52.631Z,6.1
2018-02-04T02:59:02.440Z,6.24
2018-02-04T03:00:12.226Z,6.15
2018-02-04T03:01:22.034Z,6.24
2018-02-04T03:02:31.826Z,6.24
2018-02-04T03:35:00.485Z,3.76
2018-02-04T03:36:10.516Z,3.74
2018-02-04T03:37:20.542Z,3.66
2018-02-04T03:38:30.617Z,3.66
2018-02-04T03:39:40.676Z,3.84
2018-02-04T03:40:50.733Z,3.89
2018-02-04T03:42:00.517Z,4
2018-02-04T03:43:10.303Z,4.15
2018-02-04T03:44:20.355Z,4.21
2018-02-04T03:45:30.381Z,4.39
2018-02-04T03:46:40.208Z,4.6
2018-02-04T03:47:50.268Z,4.66
2018-02-04T03:49:00.048Z,4.85
2018-02-04T03:50:10.094Z,4.92
2018-02-04T03:51:20.153Z,5.13
2018-02-04T03:52:30.187Z,5.16
2018-02-04T03:53:39.968Z,5.28
2018-02-04T03:54:50.001Z,5.44
2018-02-04T03:56:00.046Z,5.51
2018-02-04T03:57:09.845Z,5.55
2018-02-04T03:58:19.676Z,5.75
2018-02-04T03:59:29.718Z,5.66
2018-02-04T04:00:39.763Z,5.75
2018-02-04T04:01:49.560Z,5.77
2018-02-04T04:02:59.596Z,5.81
2018-02-04T04:04:09.670Z,5.92
2018-02-04T04:05:19.723Z,5.91
2018-02-04T04:06:29.754Z,5.96
2018-02-04T04:07:39.556Z,6.05
2018-02-04T04:08:49.332Z,6.02
2018-02-04T04:09:59.167Z,6.1
2018-02-04T04:11:08.962Z,6.13
2018-02-04T04:12:19.012Z,6.13
2018-02-04T04:13:29.073Z,6.17
2018-02-04T04:14:38.605Z,6.15
2018-02-04T04:15:48.386Z,6.09
2018-02-04T04:16:58.421Z,6.07
2018-02-04T04:18:08.459Z,6.25
2018-02-04T04:19:18.257Z,6.25
2018-02-04T04:20:28.304Z,6.24
2018-02-04T04:21:38.359Z,6.31
2018-02-04T04:22:48.407Z,6.25
2018-02-04T04:23:58.498Z,6.42
2018-02-04T04:25:08.525Z,6.36
2018-02-04T04:26:18.051Z,6.4
2018-02-04T04:27:28.149Z,6.28
2018-02-04T04:28:37.931Z,6.39
2018-02-04T04:29:47.721Z,6.33
2018-02-04T04:30:57.500Z,6.34
2018-02-04T04:32:07.286Z,6.36
2018-02-04T04:33:17.343Z,6.47
2018-02-04T04:34:27.389Z,6.34
2018-02-04T04:35:37.426Z,6.44
2018-02-04T04:36:47.203Z,6.43
2018-02-04T04:37:56.991Z,6.49
2018-02-04T04:39:07.032Z,6.44
2018-02-04T04:40:17.063Z,6.39
2018-02-04T04:41:26.864Z,6.39
2018-02-04T04:42:36.911Z,6.37
2018-02-04T04:43:46.959Z,6.44
2018-02-04T04:44:57.016Z,6.34
2018-02-04T04:46:07.062Z,6.4
2018-02-04T04:47:17.138Z,6.49
2018-02-04T04:48:26.930Z,6.47
2018-02-04T04:49:36.983Z,6.51
2018-02-04T04:50:47.064Z,6.57
2018-02-04T04:51:57.122Z,6.62
2018-02-04T04:53:07.169Z,6.52
2018-02-04T04:54:17.204Z,6.6
2018-02-04T04:55:27.237Z,6.68
2018-02-04T04:56:37.079Z,6.79
2018-02-04T04:57:46.869Z,6.76
2018-02-04T04:58:56.906Z,6.8
2018-02-04T05:00:06.954Z,6.98
2018-02-04T05:01:16.994Z,6.98
2018-02-04T05:02:26.780Z,7.04
2018-02-04T05:03:36.823Z,7.03
2018-02-04T05:04:46.863Z,6.85
2018-02-04T05:05:56.643Z,7.01
2018-02-04T05:07:06.684Z,7
2018-02-04T05:08:16.720Z,6.94
2018-02-04T05:09:26.762Z,6.94
2018-02-04T05:10:36.283Z,6.78
2018-02-04T05:11:46.321Z,6.78
2018-02-04T05:12:56.362Z,6.68
2018-02-04T05:14:06.433Z,6.73
2018-02-04T05:15:15.702Z,6.67
2018-02-04T05:16:25.739Z,6.76
2018-02-04T05:17:35.785Z,6.68
2018-02-04T05:18:45.834Z,6.64
2018-02-04T05:19:55.948Z,6.64
2018-02-04T05:21:05.735Z,6.65
2018-02-04T05:22:15.768Z,6.58
2018-02-04T05:23:25.557Z,6.54
2018-02-04T05:24:35.610Z,6.57
2018-02-04T05:25:45.709Z,6.55
2018-02-04T05:26:55.262Z,6.57
2018-02-04T05:28:05.299Z,6.58
2018-02-04T05:29:15.342Z,6.6
2018-02-04T05:30:24.874Z,6.61
2018-02-04T05:31:34.694Z,6.72
2018-02-04T05:32:44.739Z,6.68
2018-02-04T05:33:54.774Z,6.76
2018-02-04T05:35:04.815Z,6.78
2018-02-04T05:36:14.598Z,6.73
2018-02-04T05:37:24.398Z,6.7
2018-02-04T05:38:34.451Z,6.76
2018-02-04T05:39:44.507Z,6.7
2018-02-04T05:40:54.541Z,6.73
2018-02-04T05:42:04.393Z,6.68
2018-02-04T05:43:14.533Z,6.76
2018-02-04T05:44:24.580Z,6.76
2018-02-04T05:45:34.362Z,6.72
2018-02-04T05:46:44.420Z,6.76
2018-02-04T05:47:54.202Z,6.73
2018-02-04T05:49:04.297Z,6.75
2018-02-04T05:50:14.333Z,6.79
2018-02-04T05:51:24.368Z,6.75
2018-02-04T05:52:34.412Z,6.85
2018-02-04T05:53:44.466Z,6.8
2018-02-04T05:54:54.510Z,6.88
2018-02-04T05:56:04.551Z,6.9
2018-02-04T05:57:14.594Z,6.93
2018-02-04T05:58:24.628Z,7.03
2018-02-04T05:59:34.432Z,7.03
2018-02-04T06:00:44.522Z,6.91
2018-02-04T06:01:54.564Z,7
2018-02-04T06:03:04.603Z,6.91
2018-02-04T06:04:14.653Z,6.85
2018-02-04T06:05:24.451Z,6.8
2018-02-04T06:06:34.493Z,6.9
2018-02-04T06:07:44.527Z,6.88
2018-02-04T06:08:54.348Z,6.82
2018-02-04T06:10:03.869Z,6.8
2018-02-04T06:11:13.928Z,6.79
2018-02-04T06:12:24.037Z,6.85
2018-02-04T06:13:33.825Z,6.76
2018-02-04T06:14:43.610Z,6.83
2018-02-04T06:15:53.648Z,6.8
2018-02-04T06:17:03.701Z,6.78
2018-02-04T06:18:13.820Z,6.7
2018-02-04T06:19:23.602Z,6.62
2018-02-04T06:20:33.120Z,6.83
2018-02-04T06:21:42.632Z,6.8
2018-02-04T06:22:52.428Z,6.76
2018-02-04T06:24:02.526Z,6.82
2018-02-04T06:25:12.572Z,6.94
2018-02-04T06:26:22.603Z,6.91
2018-02-04T06:27:32.401Z,6.95
2018-02-04T06:28:42.452Z,6.94
2018-02-04T06:29:52.281Z,7.08
2018-02-04T06:31:02.330Z,7
2018-02-04T06:32:12.355Z,7.05
2018-02-04T06:33:22.414Z,7.13
2018-02-04T06:34:32.194Z,7.08
2018-02-04T06:35:42.298Z,7.13
2018-02-04T06:36:52.349Z,7.04
2018-02-04T06:38:02.392Z,7.09
2018-02-04T06:39:12.423Z,7.16
2018-02-04T06:40:22.460Z,7.08
2018-02-04T06:41:32.308Z,7.15
2018-02-04T06:42:42.371Z,7.22
2018-02-04T06:43:52.496Z,7.18
2018-02-04T06:45:02.328Z,7.23
2018-02-04T06:46:12.392Z,7.29
2018-02-04T06:47:22.475Z,7.27
2018-02-04T06:48:32.577Z,7.18
2018-02-04T06:49:42.615Z,7.18
2018-02-04T06:50:52.397Z,7.26
2018-02-04T06:52:02.443Z,7.23
2018-02-04T06:53:12.492Z,7.22
2018-02-04T06:54:22.515Z,7.26
2018-02-04T06:55:32.308Z,7.26
2018-02-04T06:56:42.346Z,7.29
2018-02-04T06:57:52.406Z,7.4
2018-02-04T06:59:02.507Z,7.34
2018-02-04T07:00:12.559Z,7.37
2018-02-04T07:01:22.603Z,7.3
2018-02-04T07:02:32.639Z,7.18
2018-02-04T07:03:42.434Z,7.33
2018-02-04T07:04:52.472Z,7.34
2018-02-04T07:06:02.512Z,7.22
2018-02-04T07:07:12.296Z,7.22
2018-02-04T07:08:22.342Z,7.4
2018-02-04T07:09:32.383Z,7.26
2018-02-04T07:10:42.236Z,7.23
2018-02-04T07:11:52.268Z,7.26
2018-02-04T07:13:02.299Z,7.22
2018-02-04T07:14:12.087Z,7.29
2018-02-04T07:15:22.130Z,7.26
2018-02-04T07:16:32.187Z,7.3
2018-02-04T07:17:41.721Z,7.29
2018-02-04T07:18:51.759Z,7.23
2018-02-04T07:20:01.830Z,7.22
2018-02-04T07:21:11.891Z,7.26
2018-02-04T07:22:21.940Z,7.26
2018-02-04T07:23:31.787Z,7.22
2018-02-04T07:24:41.872Z,7.29
2018-02-04T07:25:51.924Z,7.31
2018-02-04T07:27:01.969Z,7.19
2018-02-04T07:28:12.122Z,7.33
2018-02-04T07:29:21.900Z,7.44
2018-02-04T07:30:31.942Z,7.44
2018-02-04T07:31:41.971Z,7.48
2018-02-04T07:32:51.754Z,7.36
2018-02-04T07:34:01.801Z,7.39
2018-02-04T07:35:11.849Z,7.4
2018-02-04T07:36:21.894Z,7.47
2018-02-04T07:37:31.946Z,7.44
2018-02-04T07:38:41.733Z,7.44
2018-02-04T07:39:51.574Z,7.37
2018-02-04T07:41:01.360Z,7.34
2018-02-04T07:42:11.416Z,7.45
2018-02-04T07:43:21.465Z,7.37
2018-02-04T07:44:31.264Z,7.36
2018-02-04T07:45:41.324Z,7.34
2018-02-04T07:46:51.109Z,7.33
2018-02-04T07:48:01.172Z,7.23
2018-02-04T07:49:11.243Z,7.27
2018-02-04T07:50:21.287Z,7.36
2018-02-04T07:51:31.097Z,7.37
2018-02-04T07:52:40.888Z,7.45
2018-02-04T07:53:50.937Z,7.47
2018-02-04T07:55:00.991Z,7.45
2018-02-04T07:56:11.081Z,7.48
2018-02-04T07:57:21.171Z,7.54
2018-02-04T07:58:31.234Z,7.58
2018-02-04T07:59:41.279Z,7.58
2018-02-04T08:00:51.337Z,7.61
2018-02-04T08:02:01.113Z,7.77
2018-02-04T08:03:10.911Z,7.74
2018-02-04T08:04:20.981Z,7.75
2018-02-04T08:05:31.023Z,7.85
2018-02-04T08:06:41.070Z,7.91
2018-02-04T08:07:51.123Z,7.92
2018-02-04T08:09:01.187Z,8.06
2018-02-04T08:10:11.242Z,7.99
2018-02-04T08:11:21.301Z,8.11
2018-02-04T08:12:31.094Z,8.16
2018-02-04T08:13:41.160Z,8.24
2018-02-04T08:14:51.015Z,8.25
2018-02-04T08:16:01.058Z,8.24
2018-02-04T08:17:10.841Z,8.32
2018-02-04T08:18:20.623Z,8.25
2018-02-04T08:19:30.760Z,8.19
2018-02-04T08:20:40.822Z,8.26
2018-02-04T08:21:50.620Z,8.35
2018-02-04T08:23:00.662Z,8.4
2018-02-04T08:24:10.705Z,8.49
2018-02-04T08:25:20.740Z,8.49
2018-02-04T08:26:30.831Z,8.47
2018-02-04T08:27:40.091Z,8.52
2018-02-04T08:28:49.868Z,8.57
2018-02-04T08:29:59.935Z,8.6
2018-02-04T08:31:09.724Z,8.62
2018-02-04T08:32:19.819Z,8.72
2018-02-04T08:33:29.900Z,8.77
2018-02-04T08:34:39.942Z,8.71
2018-02-04T08:35:50.007Z,8.74
2018-02-04T08:37:00.063Z,8.71
2018-02-04T08:38:10.132Z,8.8
2018-02-04T08:39:19.924Z,8.77
2018-02-04T08:40:29.988Z,8.71
2018-02-04T08:41:39.779Z,8.65
2018-02-04T08:42:49.585Z,8.69
2018-02-04T08:43:59.618Z,8.82
2018-02-04T08:45:09.653Z,8.82
2018-02-04T08:46:19.696Z,9.08
2018-02-04T08:47:29.741Z,9.17
2018-02-04T08:48:39.785Z,9.21
2018-02-04T08:49:49.837Z,9.38
2018-02-04T08:50:59.884Z,9.47
2018-02-04T08:52:09.962Z,9.64
2018-02-04T08:53:20.021Z,9.59
2018-02-04T08:54:29.813Z,9.62
2018-02-04T08:55:39.356Z,9.57
2018-02-04T08:56:49.213Z,9.63
2018-02-04T08:57:59.247Z,9.66
2018-02-04T08:59:09.051Z,9.6
2018-02-04T09:00:18.838Z,9.71
2018-02-04T09:01:28.898Z,9.82
2018-02-04T09:02:38.979Z,9.89
2018-02-04T09:03:49.023Z,9.85
2018-02-04T09:04:58.571Z,9.99
2018-02-04T09:06:08.624Z,9.93
2018-02-04T09:07:18.662Z,9.89
2018-02-04T09:08:28.493Z,9.89
2018-02-04T09:09:38.550Z,9.85
2018-02-04T09:10:48.626Z,9.96
2018-02-04T09:11:58.683Z,9.98
2018-02-04T09:13:08.996Z,10.07
2018-02-04T09:14:19.084Z,10.11
2018-02-04T09:15:29.153Z,10.07
2018-02-04T09:16:39.217Z,10.2
2018-02-04T09:17:49.008Z,10.23
2018-02-04T09:18:58.799Z,10.41
2018-02-04T09:20:08.606Z,10.49
2018-02-04T09:21:18.424Z,10.63
2018-02-04T09:22:28.514Z,10.72
2018-02-04T09:23:38.074Z,10.9
2018-02-04T09:24:48.113Z,11.1
2018-02-04T09:25:57.915Z,11.49
2018-02-04T09:27:07.715Z,11.68
2018-02-04T09:28:17.819Z,11.85
2018-02-04T09:29:27.870Z,12.03
2018-02-04T09:30:37.671Z,12.11
2018-02-04T09:31:47.734Z,12.25
2018-02-04T09:32:57.524Z,12.36
2018-02-04T09:34:07.676Z,12.43
2018-02-04T09:35:17.734Z,12.44
2018-02-04T09:36:27.885Z,12.38
2018-02-04T09:37:37.927Z,12.41
2018-02-04T09:38:47.723Z,12.19
2018-02-04T09:39:57.510Z,12.25
2018-02-04T09:41:07.554Z,12.36
2018-02-04T09:42:17.348Z,12.41
2018-02-04T09:43:26.890Z,12.28
2018-02-04T09:44:36.680Z,12.33
2018-02-04T09:45:46.504Z,12.13
2018-02-04T09:46:56.306Z,12.07
2018-02-04T09:48:06.122Z,11.91
2018-02-04T09:49:15.921Z,11.91
2018-02-04T09:50:25.970Z,11.85
2018-02-04T09:51:36.044Z,11.78
2018-02-04T09:52:46.118Z,11.81
2018-02-04T09:53:55.940Z,11.68
2018-02-04T09:55:05.993Z,11.6
2018-02-04T09:56:15.786Z,11.42
2018-02-04T09:57:25.585Z,11.27
2018-02-04T09:58:35.438Z,11.18
2018-02-04T09:59:45.537Z,11.15
2018-02-04T10:00:55.607Z,11.03
2018-02-04T10:02:05.733Z,11.05
2018-02-04T10:03:15.860Z,10.92
2018-02-04T10:04:25.943Z,11
2018-02-04T10:05:36.011Z,10.87
2018-02-04T10:06:46.076Z,10.87
2018-02-04T10:07:56.140Z,10.84
2018-02-04T10:09:06.190Z,10.94
2018-02-04T10:10:16.237Z,10.79
2018-02-04T10:11:26.322Z,10.79
2018-02-04T10:12:36.428Z,10.79
2018-02-04T10:13:46.222Z,10.7
2018-02-04T10:14:56.360Z,10.73
2018-02-04T10:16:06.407Z,10.8
2018-02-04T10:17:16.471Z,10.85
2018-02-04T10:18:26.272Z,10.9
2018-02-04T10:19:36.357Z,10.91
2018-02-04T10:20:45.927Z,10.83
2018-02-04T10:21:55.710Z,10.77
2018-02-04T10:23:05.778Z,10.7
2018-02-04T10:24:15.846Z,10.79
2018-02-04T10:25:26.023Z,10.72
2018-02-04T10:26:36.165Z,10.59
2018-02-04T10:27:45.696Z,10.51
2018-02-04T10:28:55.759Z,10.49
2018-02-04T10:30:05.821Z,10.38
2018-02-04T10:31:16.122Z,10.32
2018-02-04T10:32:26.224Z,10.28
2018-02-04T10:33:36.008Z,10.23
2018-02-04T10:34:46.088Z,10.23
2018-02-04T10:35:56.204Z,10.14
2018-02-04T10:37:06.241Z,10.14
2018-02-04T10:38:16.342Z,10.14
2018-02-04T10:39:26.401Z,10.14
2018-02-04T10:40:36.193Z,10.05
2018-02-04T10:41:46.253Z,9.98
2018-02-04T10:42:56.320Z,9.84
2018-02-04T10:44:06.437Z,9.75
2018-02-04T10:45:16.496Z,9.78
2018-02-04T10:46:26.300Z,9.63
2018-02-04T10:47:36.405Z,9.67
2018-02-04T10:48:46.488Z,9.67
2018-02-04T10:49:56.546Z,9.6
2018-02-04T10:51:06.335Z,9.59
2018-02-04T10:52:16.405Z,9.52
2018-02-04T10:53:26.461Z,9.55
2018-02-04T10:54:36.521Z,9.62
2018-02-04T10:55:46.392Z,9.75
2018-02-04T10:56:56.453Z,9.78
2018-02-04T10:58:06.508Z,9.56
2018-02-04T10:59:16.560Z,9.66
2018-02-04T11:00:26.360Z,9.82
2018-02-04T11:01:36.473Z,10.1
2018-02-04T11:02:46.260Z,10.23
2018-02-04T11:03:56.310Z,10.1
2018-02-04T11:05:06.388Z,9.88
2018-02-04T11:06:16.466Z,9.88
2018-02-04T11:07:26.529Z,10
2018-02-04T11:08:36.566Z,9.99
2018-02-04T11:09:46.619Z,9.95
2018-02-04T11:10:56.677Z,10.08
2018-02-04T11:12:06.725Z,10.21
2018-02-04T11:13:16.796Z,10.32
2018-02-04T11:14:26.834Z,10.14
2018-02-04T11:15:36.905Z,10.11
2018-02-04T11:16:46.970Z,10.2
2018-02-04T11:17:56.781Z,10.2
2018-02-04T11:19:06.860Z,10.31
2018-02-04T11:20:16.934Z,10.49
2018-02-04T11:21:26.750Z,10.61
2018-02-04T11:22:36.807Z,10.91
2018-02-04T11:23:46.873Z,10.87
2018-02-04T11:24:56.722Z,10.95
2018-02-04T11:26:06.889Z,10.95
2018-02-04T11:27:16.967Z,11.03
2018-02-04T11:28:27.025Z,11.03
2018-02-04T11:29:37.094Z,11.05
2018-02-04T11:30:46.942Z,11.13
2018-02-04T11:31:56.995Z,11.16
2018-02-04T11:33:07.056Z,11.12
2018-02-04T11:34:17.113Z,11.24
2018-02-04T11:35:26.908Z,11.45
2018-02-04T11:36:36.772Z,11.38
2018-02-04T11:37:46.548Z,11.1
2018-02-04T11:38:56.354Z,11.61
2018-02-04T11:40:06.428Z,11.91
2018-02-04T11:41:16.241Z,12.25
2018-02-04T11:42:26.319Z,12.4
2018-02-04T11:43:36.416Z,12.51
2018-02-04T11:44:46.486Z,12.44
2018-02-04T11:45:56.556Z,12.61
2018-02-04T11:47:06.357Z,12.78
2018-02-04T11:48:16.410Z,13.1
2018-02-04T11:49:26.197Z,13.35
2018-02-04T11:50:36.256Z,13.2
2018-02-04T11:51:46.377Z,13.14
2018-02-04T11:52:56.228Z,12.73
2018-02-04T11:54:06.292Z,12.78
2018-02-04T11:55:16.099Z,12.63
2018-02-04T11:56:26.162Z,12.83
2018-02-04T11:57:35.966Z,12.91
2018-02-04T11:58:46.027Z,13.02
2018-02-04T11:59:56.118Z,13.06
2018-02-04T12:01:06.197Z,12.88
2018-02-04T12:02:16.262Z,12.88
2018-02-04T12:03:26.345Z,12.84
2018-02-04T12:04:36.408Z,12.45
2018-02-04T12:05:46.530Z,12.31
2018-02-04T12:06:56.058Z,12.41
2018-02-04T12:08:06.123Z,12.07
2018-02-04T12:09:16.172Z,12.43
2018-02-04T12:10:25.720Z,12.65
2018-02-04T12:11:35.807Z,12.58
2018-02-04T12:12:45.846Z,12.2
2018-02-04T12:13:55.899Z,11.85
2018-02-04T12:15:05.963Z,11.71
2018-02-04T12:16:15.764Z,11.48
2018-02-04T12:17:25.567Z,11.41
2018-02-04T12:18:35.629Z,11.34
2018-02-04T12:19:45.691Z,11.42
2018-02-04T12:20:55.769Z,11.6
2018-02-04T12:22:05.820Z,11.63
2018-02-04T12:23:15.615Z,11.76
2018-02-04T12:24:25.688Z,11.94
2018-02-04T12:25:35.722Z,12.11
2018-02-04T12:26:45.787Z,12.23
2018-02-04T12:27:55.839Z,12.47
2018-02-04T12:29:05.897Z,12.76
2018-02-04T12:30:15.699Z,12.88
2018-02-04T12:31:25.226Z,13.21
2018-02-04T12:32:35.011Z,13.44
2018-02-04T12:33:45.057Z,13.31
2018-02-04T12:34:55.150Z,13.55
2018-02-04T12:36:04.941Z,13.53
2018-02-04T12:37:14.728Z,13.55
2018-02-04T12:38:24.784Z,13.37
2018-02-04T12:39:34.570Z,12.99
2018-02-04T12:40:44.371Z,12.83
2018-02-04T12:41:54.438Z,12.15
2018-02-04T12:43:04.501Z,11.81
2018-02-04T12:44:14.305Z,11.35
2018-02-04T12:45:24.354Z,11.16
2018-02-04T12:46:34.142Z,10.95
2018-02-04T12:47:43.947Z,10.8
2018-02-04T12:48:53.747Z,10.57
2018-02-04T12:50:03.788Z,10.33
2018-02-04T12:51:13.593Z,10.21
2018-02-04T12:52:23.672Z,10
2018-02-04T12:53:33.763Z,9.85
2018-02-04T12:54:43.821Z,9.74
2018-02-04T12:55:53.643Z,9.66
2018-02-04T12:57:03.718Z,9.63
2018-02-04T12:58:13.595Z,9.63
2018-02-04T12:59:23.658Z,9.55
2018-02-04T13:00:33.714Z,9.5
2018-02-04T13:01:43.760Z,9.52
2018-02-04T13:02:53.808Z,9.52
2018-02-04T13:04:03.929Z,9.41
2018-02-04T13:05:13.722Z,9.39
2018-02-04T13:06:23.761Z,9.44
2018-02-04T13:07:33.845Z,9.5
2018-02-04T13:08:43.661Z,9.52
2018-02-04T13:09:53.785Z,9.62
2018-02-04T13:11:03.611Z,9.56
2018-02-04T13:12:13.673Z,9.56
2018-02-04T13:13:23.729Z,9.53
2018-02-04T13:14:33.554Z,9.45
2018-02-04T13:15:43.677Z,9.37
2018-02-04T13:16:53.756Z,9.34
2018-02-04T13:18:03.841Z,9.2
2018-02-04T13:19:13.889Z,9.27
2018-02-04T13:20:23.973Z,9.2
2018-02-04T13:21:34.046Z,9.26
2018-02-04T13:22:44.093Z,9.26
2018-02-04T13:23:54.158Z,9.34
2018-02-04T13:25:04.214Z,9.34
2018-02-04T13:26:14.002Z,9.26
2018-02-04T13:27:24.413Z,9.32
2018-02-04T13:28:34.251Z,9.14
2018-02-04T13:29:44.049Z,9.16
2018-02-04T13:30:53.848Z,9.05
2018-02-04T13:32:03.646Z,8.95
2018-02-04T13:33:13.709Z,9.01
2018-02-04T13:34:23.850Z,9.24
2018-02-04T13:35:33.916Z,9.12
2018-02-04T13:36:43.990Z,9.48
2018-02-04T13:37:54.061Z,9.47
2018-02-04T13:39:03.863Z,9.45
2018-02-04T13:40:13.933Z,9.52
2018-02-04T13:41:23.992Z,9.56
2018-02-04T13:42:34.096Z,9.57
2018-02-04T13:43:44.154Z,9.6
2018-02-04T13:44:53.976Z,9.81
2018-02-04T13:46:04.038Z,10.15
2018-02-04T13:47:14.099Z,10.65
2018-02-04T13:48:23.912Z,10.85
2018-02-04T13:49:33.980Z,10.85
2018-02-04T13:50:44.030Z,10.94
2018-02-04T13:51:53.836Z,11.06
2018-02-04T13:53:03.906Z,11.16
2018-02-04T13:54:13.713Z,11.34
2018-02-04T13:55:23.789Z,11.71
2018-02-04T13:56:33.623Z,11.94
2018-02-04T13:57:43.691Z,12.1
2018-02-04T13:58:53.770Z,12.01
2018-02-04T14:00:03.860Z,12.15
2018-02-04T14:01:13.972Z,12.48
2018-02-04T14:02:24.077Z,12.8
2018-02-04T14:03:34.155Z,12.88
2018-02-04T14:04:44.252Z,13.07
2018-02-04T14:05:54.322Z,13.19
2018-02-04T14:07:04.381Z,13.32
2018-02-04T14:08:14.221Z,13.36
2018-02-04T14:09:24.289Z,13.44
2018-02-04T14:10:34.354Z,13.57
2018-02-04T14:11:44.273Z,13.53
2018-02-04T14:12:53.820Z,13.6
2018-02-04T14:14:03.886Z,13.4
2018-02-04T14:15:13.680Z,12.76
2018-02-04T14:16:23.483Z,12.16
2018-02-04T14:17:33.363Z,11.61
2018-02-04T14:18:43.496Z,11.15
2018-02-04T14:19:53.356Z,10.69
2018-02-04T14:21:03.421Z,10.23
2018-02-04T14:22:13.251Z,9.85
2018-02-04T14:23:23.344Z,9.7
2018-02-04T14:24:33.424Z,9.48
2018-02-04T14:25:43.478Z,9.27
2018-02-04T14:26:53.033Z,9.14
2018-02-04T14:28:02.842Z,8.95
2018-02-04T14:29:12.918Z,8.8
2018-02-04T14:30:23.093Z,8.74
2018-02-04T14:31:33.167Z,8.67
2018-02-04T14:32:43.061Z,8.64
2018-02-04T14:33:53.133Z,8.64
2018-02-04T14:35:03.217Z,8.58
2018-02-04T14:36:13.043Z,8.57
2018-02-04T14:37:23.113Z,8.62
2018-02-04T14:38:33.180Z,8.49
2018-02-04T14:39:42.963Z,8.54
2018-02-04T14:40:53.034Z,8.43
2018-02-04T14:42:02.830Z,8.49
2018-02-04T14:43:12.911Z,8.32
2018-02-04T14:44:22.969Z,8.28
2018-02-04T14:45:33.040Z,8.24
2018-02-04T14:46:43.098Z,8.21
2018-02-04T14:47:53.161Z,8.13
2018-02-04T14:49:04.037Z,8.11
2018-02-04T14:50:14.107Z,8.04
2018-02-04T14:51:24.165Z,8.03
2018-02-04T14:52:34.203Z,8.07
2018-02-04T14:53:44.270Z,8.01
2018-02-04T14:54:54.343Z,7.99
2018-02-04T14:56:04.138Z,7.92
2018-02-04T14:57:14.235Z,7.88
2018-02-04T14:58:24.111Z,7.83
2018-02-04T14:59:34.178Z,7.88
2018-02-04T15:00:44.227Z,7.77
2018-02-04T15:01:54.286Z,7.75
2018-02-04T15:03:04.360Z,7.8
2018-02-04T15:04:14.432Z,7.73
2018-02-04T15:05:24.478Z,7.68
2018-02-04T15:06:34.516Z,7.64
2018-02-04T15:07:44.574Z,7.67
2018-02-04T15:08:54.623Z,7.73
2018-02-04T15:10:04.409Z,7.7
2018-02-04T15:11:14.479Z,7.73
2018-02-04T15:12:24.541Z,7.73
2018-02-04T15:13:34.599Z,7.67
2018-02-04T15:14:44.397Z,7.67
2018-02-04T15:15:54.447Z,7.61
2018-02-04T15:17:04.250Z,7.74
2018-02-04T15:18:14.366Z,7.56
2018-02-04T15:19:24.417Z,7.59
2018-02-04T15:20:34.464Z,7.51
2018-02-04T15:21:44.518Z,7.54
2018-02-04T15:22:54.612Z,7.44
2018-02-04T15:24:04.758Z,7.54
2018-02-04T15:25:14.818Z,7.36
2018-02-04T15:26:24.612Z,7.36
2018-02-04T15:27:34.657Z,7.31
2018-02-04T15:28:44.733Z,7.34
2018-02-04T15:29:54.814Z,7.22
2018-02-04T15:31:04.881Z,7.21
2018-02-04T15:32:14.947Z,7.19
2018-02-04T15:33:24.740Z,7.16
2018-02-04T15:34:34.528Z,7.09
2018-02-04T15:35:44.577Z,7.05
2018-02-04T15:36:54.632Z,7.03
2018-02-04T15:38:04.724Z,7.01
2018-02-04T15:39:14.775Z,6.85
2018-02-04T15:40:25.874Z,6.8
2018-02-04T15:41:35.942Z,6.73
2018-02-04T15:42:45.719Z,6.72
2018-02-04T15:43:55.525Z,6.76
2018-02-04T15:45:05.588Z,6.75
2018-02-04T15:46:15.656Z,6.73
2018-02-04T15:47:25.479Z,6.51
2018-02-04T15:48:35.267Z,6.58
2018-02-04T15:49:45.081Z,6.47
2018-02-04T15:50:55.138Z,6.49
2018-02-04T15:52:04.933Z,6.47
2018-02-04T15:53:14.802Z,6.49
2018-02-04T15:54:24.857Z,6.46
2018-02-04T15:55:34.964Z,6.42
2018-02-04T15:56:45.025Z,6.39
2018-02-04T15:57:55.079Z,6.36
2018-02-04T15:59:04.912Z,6.36